Date,TemperatureHighF,TemperatureAvgF,TemperatureLowF,DewpointHighF,DewpointAvgF,DewpointLowF,HumidityHigh,HumidityAvg,HumidityLow,PressureMaxIn,PressureMinIn,WindSpeedMaxMPH,WindSpeedAvgMPH,GustSpeedMaxMPH,PrecipitationSumIn
2013-1-1,74.5,56.8,41.0,60.3,51.0,39.4,100,82,60,30.23,29.98,10,1,14,0.00
2013-1-2,65.5,59.4,54.9,63.3,57.8,52.5,96,94,91,30.10,29.96,6,0,10,0.05
2013-1-3,58.3,52.7,46.8,57.2,51.7,45.7,97,96,95,30.26,30.06,5,0,7,0.18
2013-1-4,55.9,47.0,41.4,49.5,44.3,40.3,97,91,77,30.34,30.24,3,0,6,0.01
2013-1-5,63.0,48.1,34.5,50.5,42.5,33.3,100,82,54,30.38,30.26,5,0,6,0.00
2013-1-6,53.6,51.3,48.6,52.3,49.7,47.1,96,94,91,30.28,30.12,2,0,4,0.11
2013-1-7,58.5,48.9,39.4,50.0,44.3,36.7,95,84,72,30.32,30.19,11,1,12,0.00
2013-1-8,69.6,56.9,46.9,62.6,53.0,43.5,94,87,77,30.32,30.22,6,0,9,0.01
2013-1-9,77.0,64.9,56.8,70.3,62.6,55.2,98,93,78,30.37,30.25,6,0,10,0.01
2013-1-10,74.8,66.0,63.0,68.9,64.2,61.7,98,94,80,30.37,30.28,6,0,9,0.01
2013-1-11,81.3,67.4,55.6,67.5,61.4,54.7,98,83,53,30.29,30.15,9,0,10,0.00
2013-1-12,80.6,66.4,55.6,68.0,60.6,54.3,98,83,54,30.20,30.10,5,0,8,0.00
2013-1-13,79.3,66.7,55.8,67.1,61.3,54.3,98,84,59,30.17,30.06,5,0,9,0.00
2013-1-14,80.4,67.7,57.7,67.8,61.6,56.3,98,82,56,30.19,30.09,9,0,11,0.01
2013-1-15,80.2,65.8,53.1,66.7,59.6,51.6,98,82,56,30.16,30.04,9,0,10,0.00
2013-1-16,81.9,67.0,55.9,66.7,60.4,54.5,98,81,55,30.08,29.96,9,0,14,0.00
2013-1-17,72.0,56.3,41.7,66.0,51.3,34.3,97,84,62,30.15,29.88,18,2,18,0.02
2013-1-18,60.1,46.4,37.2,39.6,34.8,25.7,94,67,29,30.45,30.14,11,1,16,0.00
2013-1-19,66.6,51.5,39.4,54.0,43.2,31.5,94,74,63,30.40,30.22,8,1,11,0.00
2013-1-20,71.2,56.5,45.1,53.2,48.8,42.4,97,78,46,30.23,30.08,6,0,11,0.00
2013-1-21,67.8,53.4,40.8,47.3,43.3,39.0,98,72,40,30.14,30.02,6,0,13,0.00
2013-1-22,61.3,48.1,36.1,42.8,33.1,27.1,81,59,29,30.31,30.10,11,0,12,0.00
2013-1-23,62.1,44.3,29.5,40.1,32.8,26.8,93,68,36,30.43,30.26,7,0,11,0.00
2013-1-24,73.0,56.3,42.1,55.0,47.2,37.6,91,73,51,30.34,30.18,13,2,19,0.00
2013-1-25,72.1,55.4,43.9,54.9,47.3,41.4,92,76,48,30.35,30.15,7,0,7,0.00
2013-1-26,75.6,62.5,51.6,61.2,55.6,47.7,96,79,59,30.25,30.13,11,1,12,0.00
2013-1-27,66.6,56.6,48.4,56.1,51.2,46.4,95,83,64,30.41,30.24,11,1,14,0.00
2013-1-28,76.1,61.8,51.4,63.0,56.7,49.5,97,84,62,30.40,30.26,7,0,11,0.00
2013-1-29,58.6,55.6,52.3,56.1,53.7,50.9,95,93,90,30.28,30.21,0,0,0,0.00
2013-2-18,60.4,46.1,21.9,37.2,28.7,16.7,94,56,24,30.43,30.23,7,1,11,0.00
2013-2-19,72.9,54.1,35.2,60.8,48.0,32.2,100,82,52,30.24,29.99,10,1,16,0.05
2013-2-20,64.2,49.7,34.0,52.0,37.0,24.8,95,67,24,30.20,30.08,6,0,7,0.04
2013-2-21,73.2,51.4,30.7,50.0,38.3,28.4,95,66,31,30.17,30.03,6,0,9,0.00
2013-2-22,76.8,64.4,53.4,67.6,60.6,50.0,96,88,70,30.07,29.99,6,0,13,0.18
2013-2-23,78.8,66.7,61.0,69.4,64.0,59.9,98,91,70,30.00,29.83,15,1,17,0.70
2013-2-24,74.5,63.9,56.5,60.4,54.3,42.4,97,75,32,29.99,29.83,6,0,7,0.33
2013-2-25,61.3,56.9,52.9,60.8,55.2,51.1,98,94,77,29.98,29.81,7,1,13,2.42
2013-2-26,76.8,66.7,57.7,68.5,59.2,51.3,99,79,44,29.81,29.63,24,2,24,0.62
2013-2-27,61.7,54.5,49.3,51.4,46.2,41.0,91,74,55,29.97,29.81,10,2,14,0.00
2013-2-28,66.6,54.4,44.1,47.7,42.5,34.5,94,67,34,29.97,29.85,16,2,20,0.00
2013-3-1,54.1,47.7,43.0,40.3,37.0,33.4,84,67,54,30.01,29.91,10,1,11,0.00
2013-3-2,48.9,42.0,34.3,39.4,34.0,31.6,94,74,57,30.03,29.94,13,2,17,0.00
2013-3-3,46.8,38.5,31.6,33.4,29.7,27.3,86,71,52,30.12,29.99,12,1,17,0.00
2013-3-4,62.1,45.5,29.7,41.5,31.6,24.1,91,63,30,30.22,30.11,8,1,10,0.00
2013-3-5,75.2,59.2,39.9,60.1,48.0,35.8,90,68,42,30.16,29.83,14,2,17,0.10
2013-3-6,63.3,48.8,40.5,60.1,35.2,27.3,91,61,39,30.15,29.86,15,3,19,0.10
2013-3-7,63.0,45.8,31.3,40.6,34.8,28.4,91,68,38,30.24,30.13,6,0,10,0.00
2013-3-8,69.6,50.3,34.2,48.2,39.5,32.0,95,71,32,30.25,30.14,6,0,8,0.00
2013-3-9,68.7,51.0,35.1,45.9,40.3,33.3,96,70,37,30.30,30.19,7,0,10,0.00
2013-3-10,75.4,57.4,41.2,57.2,49.7,39.4,97,78,52,30.24,30.13,6,1,16,0.00
2013-3-11,76.5,61.8,46.8,59.7,54.1,45.1,97,78,52,30.15,29.88,11,0,12,0.00
2013-3-12,66.6,62.0,52.3,63.5,56.0,45.7,96,81,54,30.03,29.82,8,1,11,0.08
2013-3-13,70.2,55.0,41.4,45.7,38.1,32.9,87,58,28,30.20,30.02,11,1,17,0.00
2013-3-14,59.9,47.0,35.8,36.9,31.3,27.3,85,57,33,30.32,30.16,6,1,10,0.00
2013-3-15,72.9,52.9,34.7,44.8,37.5,32.0,92,62,29,30.28,30.09,9,1,12,0.00
2013-3-16,79.5,62.0,42.8,53.8,47.1,38.8,93,61,35,30.14,29.96,15,2,19,0.00
2013-3-17,74.8,60.0,46.2,57.4,51.2,43.7,95,74,39,30.10,29.98,8,0,11,0.00
2013-3-18,81.0,67.6,57.9,64.9,59.6,54.0,95,77,55,30.04,29.84,11,1,12,0.02
2013-3-19,76.8,64.7,52.5,62.4,57.2,48.2,96,79,46,30.01,29.82,9,1,14,0.15
2013-3-20,65.5,54.3,45.9,52.3,45.9,40.8,92,75,53,30.06,29.86,11,0,11,0.00
2013-3-21,65.7,50.5,39.0,42.6,33.7,25.9,90,58,23,29.96,29.86,11,1,14,0.00
2013-3-22,67.6,52.2,39.9,44.4,37.4,28.8,87,59,36,30.08,29.94,6,1,9,0.00
2013-3-23,64.4,55.1,46.6,63.3,52.8,43.2,97,92,75,30.02,29.79,7,0,11,0.99
2013-3-24,84.4,70.0,56.5,72.5,64.2,55.6,98,84,49,29.80,29.49,18,2,20,1.02
2013-3-25,68.9,55.4,45.3,61.2,38.2,27.9,83,54,31,30.04,29.59,13,3,18,0.01
2013-3-26,55.4,45.1,35.8,34.2,30.0,25.7,78,56,39,30.26,30.04,14,2,19,0.00
2013-3-27,60.4,45.3,31.8,37.8,32.5,27.9,87,64,35,30.32,30.21,7,1,10,0.00
2013-3-28,66.0,49.8,35.1,41.7,34.7,29.5,93,62,28,30.31,30.20,7,0,10,0.00
2013-3-29,72.9,54.5,36.7,48.6,38.9,34.3,100,62,27,30.33,30.19,11,0,12,0.00
2013-3-30,76.5,59.7,42.4,48.6,44.1,39.4,92,62,30,30.26,30.09,11,1,14,0.00
2013-3-31,80.1,64.6,51.4,60.4,52.9,43.5,89,67,49,30.11,29.94,12,1,14,0.00
2013-4-1,83.1,69.1,58.8,67.1,59.7,54.1,95,74,46,29.98,29.87,15,2,16,0.04
2013-4-2,80.1,64.1,49.5,54.1,49.4,45.0,94,63,30,30.12,29.97,6,0,10,0.00
2013-4-3,76.6,59.3,47.1,63.7,54.4,44.8,96,84,63,30.12,30.02,10,0,12,0.21
2013-4-4,76.5,65.9,57.2,69.1,62.7,55.4,98,90,74,30.09,29.83,7,1,12,0.20
2013-4-5,60.1,54.0,50.4,55.4,51.4,47.1,97,91,79,30.04,29.83,4,0,7,0.36
2013-4-6,72.3,58.1,43.9,53.8,48.0,40.6,96,73,34,30.20,30.04,7,1,12,0.00
2013-4-7,77.5,63.2,51.8,63.3,56.1,50.2,97,79,54,30.20,30.10,7,0,11,0.00
2013-4-8,83.3,66.3,50.2,63.5,56.4,48.6,97,74,41,30.16,30.06,5,0,11,0.00
2013-4-9,84.9,68.8,54.9,67.8,60.8,53.2,97,78,50,30.19,30.09,6,0,9,0.00
2013-4-10,83.8,68.0,53.8,67.6,61.1,51.8,97,80,53,30.14,29.99,6,0,10,0.00
2013-4-11,86.0,72.8,62.1,72.5,67.6,60.3,97,85,59,30.00,29.78,10,0,12,0.04
2013-4-12,89.1,75.8,69.1,74.7,69.9,66.0,95,83,52,29.88,29.73,14,1,21,0.02
2013-4-13,81.9,68.2,54.1,67.3,52.5,45.1,93,62,29,30.01,29.87,9,0,10,0.00
2013-4-14,69.3,60.7,54.3,66.0,58.5,51.6,96,93,85,30.04,29.84,8,0,15,0.33
2013-4-15,80.8,68.3,59.9,68.9,63.3,58.8,97,85,66,30.12,29.85,6,0,10,0.12
2013-4-16,83.5,70.4,59.7,70.2,64.1,57.7,97,82,59,30.20,30.10,7,0,10,0.01
2013-4-17,80.8,67.9,58.1,69.6,62.7,55.9,97,84,64,30.19,30.11,4,0,8,0.00
2013-4-18,84.9,71.1,60.3,71.2,65.5,59.2,97,84,60,30.11,29.96,7,0,10,0.02
2013-4-19,89.2,74.5,61.3,73.0,68.2,59.4,97,83,52,30.00,29.83,11,1,18,0.28
2013-4-20,63.9,55.2,49.6,59.4,50.7,47.3,95,85,66,30.22,30.00,7,0,13,0.76
2013-4-21,72.1,58.9,46.9,60.4,53.4,45.0,96,83,63,30.23,30.14,13,2,16,0.01
2013-4-22,71.4,61.3,53.8,58.3,55.3,51.3,95,82,56,30.19,30.10,9,1,13,0.17
2013-4-23,76.1,60.8,50.2,60.8,53.9,48.6,95,80,53,30.18,30.10,8,0,9,0.00
2013-4-24,83.7,66.1,48.6,64.4,56.7,46.8,97,75,46,30.17,30.06,6,0,8,0.00
2013-4-25,84.6,71.2,60.3,69.1,63.2,57.6,95,77,55,30.20,30.10,7,0,10,0.00
2013-4-26,79.5,67.4,55.0,63.3,56.9,47.5,88,70,49,30.32,30.18,9,1,11,0.00
2013-4-27,80.6,67.0,54.7,63.7,58.3,52.3,96,76,48,30.27,30.17,9,0,10,0.00
2013-4-28,83.7,70.2,58.5,68.0,62.4,56.7,97,78,55,30.18,29.98,6,0,12,0.00
2013-4-29,82.0,68.5,62.8,68.7,63.9,61.7,96,86,58,30.03,29.94,9,0,11,0.36
2013-4-30,84.4,69.4,59.7,69.4,63.5,58.6,98,83,52,30.05,29.95,4,0,6,0.01
2013-5-1,74.7,67.3,62.4,68.2,63.2,60.4,97,87,75,30.09,30.00,7,1,12,0.00
2013-5-2,68.0,66.1,64.6,67.3,64.7,61.3,98,95,88,30.06,29.98,7,0,9,1.34
2013-5-3,68.2,65.7,63.7,66.9,63.8,60.6,97,94,87,29.93,29.86,9,1,11,0.99
2013-5-4,68.7,65.4,63.1,65.1,62.6,58.1,97,91,76,29.86,29.75,11,1,18,0.48
2013-5-5,77.0,66.6,57.9,66.9,58.6,52.2,98,79,44,29.87,29.70,9,1,12,0.17
2013-5-6,71.8,61.6,51.1,56.7,52.2,47.8,91,73,50,29.98,29.84,7,0,11,0.00
2013-5-7,76.3,64.9,55.0,60.3,56.0,52.0,94,75,53,30.01,29.90,7,1,13,0.00
2013-5-8,81.3,66.2,51.4,60.3,55.7,49.5,96,72,41,30.09,29.99,6,0,11,0.00
2013-5-9,86.5,72.4,59.2,67.5,61.5,57.0,96,72,42,30.13,30.05,7,0,15,0.00
2013-5-10,88.5,73.4,58.1,67.6,62.3,56.1,96,71,41,30.12,29.97,4,0,10,0.00
2013-5-11,88.3,72.8,63.5,72.0,66.2,60.4,94,81,53,30.02,29.93,10,1,12,0.03
2013-5-12,84.6,72.9,64.0,69.4,64.1,52.0,97,77,35,30.03,29.92,10,1,12,0.02
2013-5-13,79.0,66.7,55.2,58.6,48.0,41.5,82,54,28,30.16,30.00,12,1,12,0.00
2013-5-14,82.6,63.9,47.8,52.3,45.9,39.4,89,58,24,30.25,30.15,5,0,7,0.00
2013-5-15,85.6,65.0,52.2,62.2,54.9,49.3,94,72,39,30.23,30.05,5,0,10,0.00
2013-5-16,86.2,72.7,58.1,68.5,61.9,54.3,93,70,44,30.12,30.00,6,0,9,0.00
2013-5-17,87.4,73.2,60.1,68.9,63.6,58.3,96,74,44,30.12,30.03,4,0,9,0.00
2013-5-18,87.6,72.8,63.3,73.2,67.2,61.3,97,84,53,30.12,30.01,7,0,9,1.28
2013-5-19,84.0,73.2,66.9,75.0,69.9,65.7,98,90,71,30.09,29.99,5,0,9,1.25
2013-5-20,81.0,73.1,65.7,74.8,70.0,64.4,97,90,78,30.10,30.00,3,0,6,1.26
2013-5-21,84.9,74.4,66.6,75.0,69.2,65.1,97,85,63,30.05,29.94,3,0,6,0.02
2013-5-22,84.4,74.0,66.6,74.5,69.0,64.8,97,85,61,30.00,29.91,7,0,10,0.01
2013-5-23,88.2,76.3,66.6,73.2,68.6,65.1,97,79,57,29.97,29.89,6,0,11,0.08
2013-5-24,86.4,75.6,65.7,67.8,62.6,53.4,94,68,34,30.12,29.92,11,0,14,0.00
2013-5-25,81.0,69.2,55.4,61.9,56.2,50.7,86,65,44,30.27,30.12,6,0,9,0.00
2013-5-26,85.5,69.3,54.9,64.6,57.3,52.9,97,70,36,30.25,30.15,6,0,9,0.00
2013-5-27,85.8,70.9,56.7,67.8,61.5,54.5,96,75,45,30.22,30.13,5,0,9,0.00
2013-5-28,84.6,73.1,61.3,69.4,64.9,59.5,96,77,54,30.19,30.13,6,0,11,0.00
2013-5-29,87.4,74.7,62.1,73.2,68.0,60.6,97,81,56,30.18,30.11,10,0,12,0.00
2013-5-30,86.7,76.7,67.8,74.8,70.4,66.4,97,82,60,30.19,30.10,10,0,13,0.02
2013-5-31,86.7,76.7,66.7,74.5,70.1,65.5,97,81,60,30.17,30.09,8,0,13,0.02
2013-6-1,88.0,76.6,66.6,75.2,69.9,65.1,97,81,59,30.11,30.01,6,0,13,0.00
2013-6-2,88.0,77.7,68.0,79.2,72.7,66.6,97,85,67,30.06,29.87,5,0,12,0.47
2013-6-3,91.6,77.7,70.3,77.2,72.9,68.9,96,86,58,29.94,29.83,6,0,11,0.00
2013-6-4,88.5,77.0,69.4,78.6,72.7,68.2,97,88,66,30.00,29.89,9,0,19,0.31
2013-6-5,81.5,74.4,70.3,76.5,71.8,69.1,98,92,79,30.01,29.92,6,0,10,0.35
2013-6-6,75.0,72.1,70.3,74.5,71.3,69.1,98,97,95,29.94,29.50,10,0,14,2.54
2013-6-7,85.5,77.2,69.4,76.3,72.5,68.9,98,86,70,29.89,29.50,9,2,13,0.35
2013-6-8,89.2,80.1,72.9,79.9,74.3,71.1,96,83,63,30.07,29.89,6,0,7,0.00
2013-6-9,88.2,77.6,72.1,78.1,73.2,70.2,95,87,68,30.12,30.01,7,0,12,0.05
2013-6-10,90.0,78.3,72.1,78.8,74.0,70.9,97,88,65,30.09,29.98,6,0,11,0.02
2013-6-11,91.4,80.6,71.1,78.1,73.7,69.6,97,81,56,30.08,29.97,7,0,10,0.01
2013-6-12,94.8,84.2,74.7,81.3,76.3,72.5,96,79,55,30.04,29.94,6,0,8,0.00
2013-6-13,95.7,85.2,76.5,80.1,76.9,73.9,95,78,55,29.98,29.81,7,1,12,0.00
2013-6-14,94.5,82.5,73.9,78.6,75.7,70.5,94,81,56,29.95,29.74,7,0,11,0.00
2013-6-15,88.3,78.1,67.8,72.3,69.4,66.4,96,77,54,30.10,29.94,10,0,11,0.00
2013-6-16,88.7,77.4,66.4,74.7,69.4,64.6,97,78,55,30.14,30.03,6,0,11,0.00
2013-6-17,92.1,79.0,68.7,79.3,73.1,67.3,97,83,60,30.09,29.94,4,0,11,0.00
2013-6-18,91.9,81.0,70.5,75.9,72.2,68.7,96,77,54,30.01,29.89,9,1,11,0.00
2013-6-19,91.0,78.8,72.5,77.4,73.0,69.4,96,84,59,30.03,29.90,15,0,18,0.60
2013-6-20,73.8,71.9,70.5,72.9,70.9,69.6,97,97,96,30.09,29.98,3,0,5,0.01
2013-7-10,86.9,77.6,74.1,75.9,73.3,72.3,94,87,70,30.02,29.97,4,0,5,0.00
2013-7-11,91.9,78.2,70.9,77.4,72.9,70.0,98,85,53,30.01,29.86,7,1,13,0.25
2013-7-12,85.6,77.5,72.7,77.2,74.1,71.8,98,90,71,29.93,29.86,5,1,7,0.01
2013-7-13,86.4,75.6,71.4,77.0,73.2,68.0,99,93,66,30.00,29.90,6,-8,11,2.74
2013-7-14,86.4,76.6,69.4,77.5,73.0,69.1,99,89,70,30.14,29.99,6,1,11,0.01
2013-7-15,87.4,77.1,70.5,80.4,74.0,70.0,98,91,66,30.19,30.11,8,1,14,0.20
2013-7-16,89.4,80.3,73.0,77.5,74.5,72.3,98,84,61,30.22,30.16,10,1,12,0.00
2013-7-17,91.2,80.3,72.0,77.0,73.1,68.2,99,81,50,30.22,30.09,5,1,9,0.00
2013-7-18,90.0,78.9,70.0,75.9,72.3,69.4,99,82,57,30.14,30.04,7,1,7,0.00
2013-7-19,89.2,77.1,70.2,75.7,72.2,69.3,99,86,59,30.12,30.03,6,1,10,0.24
2013-7-20,84.4,73.9,70.9,77.2,72.2,70.3,98,95,76,30.09,30.00,5,1,10,1.19
2013-7-21,89.8,77.3,71.4,77.7,73.5,70.9,98,89,61,30.09,29.99,8,1,11,0.08
2013-7-22,90.0,78.0,73.2,76.1,73.6,71.2,98,87,58,30.09,29.99,11,1,15,0.19
2013-7-23,90.9,79.1,73.6,80.1,74.2,70.7,93,85,65,30.01,29.86,8,2,11,0.00
2013-7-24,89.2,79.5,72.1,77.2,72.9,69.6,94,81,63,29.89,29.78,9,2,13,0.00
2013-7-25,89.1,78.2,71.2,77.9,73.6,69.8,96,86,65,29.95,29.81,6,1,6,0.00
2013-7-26,91.6,79.3,73.0,79.2,74.9,70.5,98,87,61,30.01,29.93,8,1,11,0.00
2013-7-27,90.9,78.8,73.2,80.1,75.2,72.7,99,89,62,30.01,29.89,5,0,11,0.43
2013-7-28,90.5,79.0,72.9,76.1,73.2,70.2,98,84,53,30.03,29.91,4,0,6,0.00
2013-7-29,93.4,80.7,70.9,77.7,73.2,69.3,98,80,50,30.14,30.01,7,1,9,0.00
2013-7-30,94.3,79.5,72.1,80.1,73.9,70.7,98,85,50,30.16,30.06,5,1,9,0.58
2013-7-31,89.8,76.6,72.7,79.7,74.1,71.8,99,93,68,30.12,30.01,6,0,14,2.49
2013-8-1,85.5,76.3,72.9,79.5,74.2,71.6,99,93,77,30.03,29.94,6,1,11,0.73
2013-8-2,91.8,79.6,70.9,78.8,73.9,70.0,99,84,57,30.03,29.92,4,0,7,0.00
2013-8-3,93.4,81.6,72.9,79.9,75.6,71.6,98,83,59,30.03,29.95,8,1,15,0.00
2013-8-4,92.8,82.2,74.8,79.3,76.3,73.4,97,83,58,30.02,29.93,5,1,10,0.00
2013-8-5,93.6,81.9,75.2,80.2,76.3,73.8,97,84,58,29.99,29.90,6,1,10,0.00
2013-8-6,89.8,80.7,75.4,80.6,76.4,72.5,98,87,68,30.00,29.90,15,1,15,0.00
2013-8-7,90.7,80.6,73.9,77.9,74.5,71.6,98,83,58,30.02,29.94,6,1,9,0.00
2013-8-8,89.6,80.1,72.1,79.7,75.0,70.9,98,85,65,30.05,29.96,4,0,6,0.00
2013-8-9,91.8,81.3,72.1,78.6,74.8,70.2,99,82,55,30.10,29.98,5,1,7,0.00
2013-8-10,93.0,81.7,72.1,77.9,74.0,70.9,99,79,51,30.14,30.04,5,1,10,0.00
2013-8-11,93.9,82.8,74.5,79.7,76.0,73.0,98,82,53,30.16,30.04,5,0,5,0.00
2013-8-12,96.4,83.4,73.9,80.1,75.6,72.5,98,79,50,30.11,29.97,5,1,9,0.01
2013-8-13,95.0,83.6,73.8,77.7,74.7,71.6,97,77,50,30.02,29.87,8,1,10,0.00
2013-8-14,94.8,80.8,72.7,78.1,74.6,69.4,97,83,53,30.00,29.84,10,1,15,0.13
2013-8-15,94.1,77.7,71.8,79.0,73.1,70.5,98,87,49,30.03,29.89,6,1,13,0.10
2013-8-16,89.8,77.3,71.4,77.2,73.5,70.7,99,89,64,30.05,29.92,6,1,9,0.04
2013-8-17,87.4,78.1,71.8,78.6,74.7,69.8,98,90,72,30.14,30.00,7,0,17,0.98
2013-8-18,90.7,79.3,70.9,79.7,75.2,70.3,99,88,64,30.13,30.03,6,1,10,0.99
2013-8-19,91.2,79.5,72.5,79.9,75.5,70.7,99,88,61,30.11,29.97,5,1,10,0.11
2013-8-20,89.2,77.0,70.5,79.2,74.1,69.8,98,91,67,30.13,30.02,4,0,7,0.22
2013-8-21,85.3,77.0,71.2,79.3,74.8,70.3,99,93,79,30.19,30.09,6,0,10,0.23
2013-8-22,87.4,78.0,73.0,78.8,74.4,71.8,99,89,66,30.14,30.01,5,0,7,0.00
2013-8-23,87.3,75.5,70.2,78.1,73.3,69.3,99,93,70,30.06,30.00,4,0,7,0.27
2013-8-24,82.9,76.1,71.6,77.2,73.6,71.1,98,92,77,30.17,30.01,3,0,5,0.06
2013-8-25,86.4,76.5,69.4,76.3,71.6,66.2,98,86,65,30.22,30.15,7,1,14,0.60
2013-8-26,81.9,74.0,68.0,77.2,71.7,66.7,98,92,81,30.22,30.10,6,1,12,0.30
2013-8-27,88.3,77.6,71.2,75.4,71.5,66.9,98,83,52,30.12,30.00,4,0,7,0.00
2013-8-28,90.9,77.7,68.0,75.7,70.7,66.7,98,81,47,30.05,29.95,5,0,7,0.00
2013-8-29,93.0,79.7,69.3,78.3,72.6,68.0,98,81,53,30.01,29.89,7,1,10,0.00
2013-8-30,92.1,80.4,72.9,80.1,74.7,71.4,97,84,57,29.96,29.86,5,1,7,0.04
2013-8-31,91.0,77.9,69.8,79.5,73.8,68.9,99,88,61,29.96,29.86,9,1,13,0.04
2013-9-1,92.3,79.9,70.5,78.3,73.4,69.6,98,82,54,29.97,29.85,6,1,9,0.00
2013-9-2,93.4,79.9,72.1,78.3,74.0,71.2,98,84,56,29.98,29.85,9,1,10,0.00
2013-9-3,93.0,80.7,72.1,77.7,74.6,71.2,98,83,55,29.98,29.88,5,1,9,0.00
2013-9-4,92.8,80.8,72.9,78.8,74.5,71.1,98,83,56,30.06,29.96,5,1,7,0.02
2013-9-5,94.5,79.2,72.0,80.1,73.9,71.2,98,86,54,30.09,29.99,6,1,7,0.02
2013-9-6,91.2,79.2,70.7,79.0,73.7,70.2,99,85,58,30.07,29.96,6,1,10,0.00
2013-9-7,90.0,77.5,69.1,74.1,70.6,65.5,99,82,46,30.05,29.95,5,1,9,0.00
2013-9-8,89.4,76.3,65.7,74.1,69.1,62.6,99,81,43,29.99,29.91,4,0,5,0.01
2013-9-9,89.8,76.9,66.7,75.0,69.9,65.8,98,81,53,30.08,29.96,5,1,9,0.00
2013-9-10,89.8,77.4,68.5,74.8,71.1,68.0,98,83,57,30.16,30.06,10,1,12,0.00
2013-9-11,87.6,76.0,70.3,77.7,72.5,68.2,98,89,66,30.14,30.05,7,1,14,0.00
2013-9-12,90.7,77.1,67.8,75.2,71.4,67.3,99,84,51,30.06,29.89,4,0,7,0.00
2013-9-13,92.8,79.2,69.1,75.2,71.5,68.5,99,80,47,29.92,29.76,5,1,9,0.00
2013-9-14,90.9,78.9,70.5,76.5,72.4,69.3,97,82,53,30.00,29.80,4,0,5,0.00
2013-9-15,92.1,78.2,70.3,78.1,74.1,69.8,99,88,59,30.09,29.99,6,0,9,0.00
2013-9-16,92.5,77.7,69.6,79.9,73.5,69.1,100,88,54,30.11,30.00,7,1,13,0.22
2013-9-17,86.7,76.1,70.7,76.8,73.0,70.3,99,91,71,30.13,30.01,10,1,13,0.33
2013-9-18,83.7,73.4,67.1,72.9,68.7,66.2,98,86,66,30.13,30.06,11,1,14,0.33
2013-9-19,84.9,73.7,64.8,74.3,68.6,62.1,97,85,69,30.11,30.04,10,1,10,0.00
2013-9-20,86.9,73.9,64.6,72.3,68.0,64.0,99,84,57,30.06,29.93,6,1,9,0.00
2013-9-21,89.2,74.7,63.1,74.3,69.1,62.6,99,85,55,29.95,29.73,9,1,9,0.15
2013-9-22,82.2,74.6,71.8,75.7,73.0,70.9,98,95,78,29.84,29.72,7,1,11,0.25
2013-9-23,74.8,72.8,70.5,73.6,71.9,69.8,99,97,93,29.97,29.83,4,0,7,0.28
2013-9-24,77.7,73.7,70.5,74.1,72.1,70.0,99,95,85,29.97,29.83,9,1,12,0.02
2013-9-25,85.3,75.1,70.9,78.1,72.9,69.8,98,93,74,29.83,29.73,4,0,10,0.04
2013-9-26,74.1,71.1,66.2,72.3,69.4,65.5,99,94,85,29.93,29.74,5,1,7,0.00
2013-9-27,81.3,69.6,61.5,68.0,64.4,61.0,99,85,60,30.04,29.91,10,1,10,0.01
2013-9-28,81.3,70.4,63.9,66.7,63.0,57.9,95,79,50,30.11,30.00,10,1,11,0.00
2013-9-29,82.6,69.7,62.1,68.4,63.7,60.3,97,83,55,30.06,29.96,9,1,10,0.00
2013-9-30,80.2,67.3,59.0,67.6,62.9,58.5,98,87,56,30.05,29.96,5,0,7,0.02
2013-10-1,83.5,69.2,61.0,65.5,62.1,60.1,98,81,49,30.12,30.02,5,1,7,0.00
2013-10-2,83.5,68.1,56.7,66.7,60.8,56.1,99,80,48,30.13,30.05,7,1,10,0.00
2013-10-3,85.1,70.4,57.6,72.1,65.5,56.7,98,86,60,30.12,30.02,4,0,7,0.00
2013-10-4,88.2,74.1,65.7,75.0,69.3,65.1,99,87,55,30.12,30.02,6,1,7,0.00
2013-10-5,87.1,73.2,64.2,72.9,67.8,63.9,99,85,55,30.10,30.00,5,1,11,0.00
2013-10-6,88.3,74.7,65.1,76.8,70.9,64.0,99,89,64,30.02,29.86,9,1,10,0.42
2013-10-7,85.3,76.6,70.2,76.3,72.7,69.8,99,89,68,29.87,29.75,4,0,11,0.01
2013-10-8,76.8,70.1,63.3,73.0,67.6,60.3,96,92,87,30.04,29.80,6,1,13,0.00
2013-10-9,77.7,65.2,59.2,67.1,61.2,57.4,98,88,67,30.11,30.02,5,1,10,0.00
2013-10-10,82.4,66.9,55.8,63.9,59.7,55.2,98,81,46,30.09,29.97,8,1,9,0.00
2013-10-11,83.8,68.2,56.8,66.2,60.7,55.9,98,80,48,30.04,29.93,7,1,10,0.00
2013-10-12,86.0,69.1,57.6,64.8,59.9,56.3,98,77,39,30.04,29.96,9,0,10,0.00
2013-10-13,84.6,69.2,56.5,68.7,62.9,55.6,97,82,53,30.10,30.00,7,1,9,0.00
2013-10-14,74.1,67.8,61.3,67.6,65.0,60.8,99,91,76,30.10,30.02,6,1,7,0.00
2013-10-15,73.0,68.3,62.4,66.6,64.4,61.5,97,88,79,30.06,29.97,6,1,10,0.00
2013-10-16,82.6,69.3,59.7,70.0,64.5,59.2,98,86,61,30.01,29.92,4,0,6,0.00
2013-10-17,87.8,71.6,58.6,70.7,64.6,58.3,99,81,51,29.99,29.87,5,1,9,0.01
2013-10-19,76.3,71.9,68.7,73.9,70.4,67.3,97,95,91,29.93,29.86,5,0,10,0.12
2013-10-20,77.5,68.1,62.2,67.3,61.9,58.8,96,82,56,30.01,29.90,6,0,9,0.12
2013-10-21,78.4,68.7,62.6,71.8,66.1,61.5,98,92,79,30.06,29.97,5,1,6,0.09
2013-10-22,73.8,67.1,63.5,70.5,65.6,62.4,98,95,89,30.00,29.83,6,0,6,0.25
2013-10-23,75.4,64.0,49.1,62.8,56.0,45.5,99,79,40,30.05,29.82,13,1,16,0.00
2013-10-24,72.0,55.1,42.6,53.6,45.5,40.6,96,74,38,30.20,30.05,5,0,6,0.00
2013-10-25,71.1,55.6,45.7,51.4,46.4,41.5,98,74,42,30.30,30.16,7,1,11,0.00
2013-10-26,70.3,53.8,42.4,54.3,46.1,38.5,96,77,48,30.29,30.14,5,1,7,0.00
2013-10-27,74.7,55.2,39.7,55.9,47.0,39.0,98,78,41,30.17,30.09,4,0,6,0.00
2013-10-28,79.2,61.5,48.4,59.4,53.2,47.3,97,78,43,30.24,30.12,5,0,6,0.00
2013-10-29,80.4,62.7,50.5,61.5,55.2,49.8,98,80,45,30.31,30.21,7,1,9,0.00
2013-10-30,81.9,63.0,50.2,64.2,55.7,49.3,99,81,42,30.29,30.17,5,1,10,0.00
2013-10-31,83.7,69.1,55.8,70.2,63.1,54.7,98,83,55,30.19,29.97,6,1,10,0.00
2013-11-1,81.9,72.7,63.7,73.0,68.2,62.8,98,87,70,29.99,29.78,7,1,14,0.04
2013-11-2,74.3,65.0,52.5,71.8,60.1,50.0,98,86,44,29.98,29.78,6,1,12,0.94
2013-11-3,69.8,55.8,47.1,51.3,47.1,43.3,96,76,40,30.24,29.97,9,1,10,0.00
2013-11-4,71.1,58.2,47.8,59.5,50.5,44.4,90,76,65,30.33,30.22,13,2,16,0.00
2013-11-5,69.8,60.3,53.2,60.8,54.1,48.2,94,80,60,30.34,30.23,13,2,15,0.00
2013-11-6,78.6,66.8,61.0,69.1,63.5,59.2,97,90,72,30.23,30.08,7,1,11,0.00
2013-11-7,81.0,68.9,57.9,67.6,64.1,48.0,98,86,61,30.09,29.97,6,1,10,0.00
2013-11-8,66.6,53.6,43.9,48.0,42.7,38.3,92,69,36,30.25,30.07,7,1,14,0.00
2013-11-9,74.5,57.2,43.5,60.4,51.2,40.3,96,81,59,30.28,30.18,6,1,10,0.00
2013-11-10,72.5,59.8,51.4,62.2,55.8,50.5,97,88,64,30.25,30.14,4,0,6,0.00
2013-11-11,75.6,59.6,46.0,61.5,53.9,45.3,98,84,54,30.22,30.13,7,1,10,0.00
2013-11-12,73.2,62.1,54.3,62.8,56.0,42.8,98,82,55,30.20,30.02,9,1,13,0.01
2013-11-13,54.1,43.8,32.2,42.6,31.5,22.5,91,64,31,30.47,30.20,12,2,16,0.00
2013-11-14,66.4,48.8,33.8,52.9,41.1,27.9,96,75,58,30.44,30.26,7,1,10,0.00
2013-11-15,63.5,58.2,50.4,62.4,57.0,49.3,98,96,89,30.26,30.09,3,0,6,0.06
2013-11-16,76.3,64.1,55.6,67.3,61.3,55.0,100,91,68,30.19,30.10,5,1,9,0.01
2013-11-17,79.3,69.4,63.3,73.2,67.6,62.4,98,94,79,30.13,29.99,4,0,5,0.04
2013-11-18,78.8,71.2,64.2,74.3,69.9,56.8,98,96,77,30.01,29.89,7,1,9,0.38
2013-11-19,66.0,56.9,48.4,57.2,47.1,41.0,87,70,55,30.10,29.94,10,2,12,0.01
2013-11-20,62.2,56.7,52.3,56.8,52.5,46.0,95,86,72,30.23,30.07,11,2,12,0.01
2013-11-21,73.0,62.3,55.8,65.1,58.8,53.4,95,89,75,30.29,30.21,9,2,13,0.00
2013-11-22,80.1,68.2,62.6,69.1,64.8,61.5,98,90,66,30.27,30.14,4,0,7,0.00
2013-11-23,82.8,66.4,55.6,68.2,62.2,55.0,98,87,61,30.15,30.01,8,1,12,0.01
2013-11-24,59.4,52.3,39.9,56.5,38.4,26.8,91,61,36,30.41,30.09,11,2,13,0.00
2013-11-25,60.3,48.0,37.0,52.7,41.0,26.6,95,77,60,30.40,30.15,12,2,15,0.01
2013-11-26,73.4,63.6,50.7,70.5,62.2,49.1,98,95,91,30.14,29.67,9,1,13,0.72
2013-11-27,69.6,50.7,34.2,68.4,47.1,29.7,97,87,71,30.24,29.59,13,2,18,0.13
2013-11-28,53.6,38.7,28.0,40.6,32.5,25.3,94,80,57,30.46,30.23,6,1,9,0.55
2013-11-29,63.7,47.6,33.8,45.0,38.3,31.5,93,72,46,30.49,30.38,6,1,7,0.00
2013-11-30,62.1,51.6,45.0,53.2,46.7,41.2,95,83,71,30.44,30.26,7,1,10,0.02
2013-12-1,69.3,55.0,45.3,59.4,50.6,42.6,96,86,69,30.27,30.00,4,0,5,0.00
2013-12-2,69.6,56.8,46.8,55.4,51.9,45.7,97,85,55,30.01,29.82,9,0,9,0.00
2013-12-3,75.0,57.9,44.8,60.6,53.2,43.9,98,86,56,29.97,29.87,4,0,10,0.00
2013-12-4,79.2,63.3,52.0,68.2,59.5,51.1,99,89,60,30.09,29.95,5,0,7,0.00
2013-12-5,83.8,67.9,56.1,67.8,62.5,55.2,98,85,56,30.15,30.05,10,1,14,0.01
2013-12-6,83.8,69.2,58.8,71.2,64.7,57.9,98,87,60,30.14,30.07,6,1,12,0.00
2013-12-7,79.7,68.6,61.9,71.8,66.4,61.0,98,93,75,30.22,30.12,5,1,7,0.01
2013-12-8,67.1,60.9,57.0,65.7,59.5,56.1,98,95,91,30.27,30.15,5,1,7,0.00
2013-12-9,83.3,67.2,57.0,69.6,62.8,56.1,100,87,60,30.20,30.05,10,1,12,0.00
2013-12-10,78.3,64.6,44.8,72.7,60.5,39.9,98,87,70,30.28,30.01,7,1,14,0.00
2013-12-11,64.4,52.3,39.9,55.9,46.8,37.6,94,82,72,30.35,30.25,7,1,10,0.00
2013-12-12,63.0,48.9,35.1,47.5,37.7,29.5,94,70,31,30.39,30.27,5,1,9,0.00
2013-12-13,64.6,47.6,32.7,52.7,42.2,31.5,96,83,57,30.37,30.15,5,1,10,0.00
2013-12-14,76.5,62.4,47.8,69.4,60.2,46.6,100,93,78,30.16,29.86,9,1,12,0.59
2013-12-15,67.6,56.0,42.6,66.7,53.8,40.1,98,92,82,30.18,29.84,9,1,14,0.89
2013-12-16,59.5,43.4,32.2,43.9,37.9,31.1,100,83,49,30.26,30.16,5,0,5,0.00
2013-12-17,66.9,47.1,33.1,44.8,38.5,32.4,97,77,36,30.29,30.15,6,1,6,0.01
2013-12-18,62.8,46.4,33.4,41.2,34.6,23.9,95,70,23,30.32,30.18,6,1,12,0.00
2013-12-19,70.9,48.7,30.0,56.3,43.4,28.9,97,84,57,30.33,30.21,5,0,6,0.00
2013-12-20,76.6,57.2,41.4,61.7,52.0,40.6,98,85,54,30.24,30.13,5,0,7,0.00
2013-12-21,83.1,66.7,51.6,68.0,60.6,50.7,98,83,52,30.14,30.01,9,1,12,0.00
2013-12-22,83.5,72.4,67.1,71.1,68.3,65.7,97,88,63,30.12,30.03,10,1,14,0.01
2013-12-23,80.6,68.1,56.8,70.7,65.5,55.9,98,92,70,30.15,30.04,9,1,10,0.28
2013-12-24,60.1,48.8,34.3,56.3,41.3,30.9,97,78,38,30.34,30.14,9,1,13,0.28
2013-12-25,55.6,44.6,33.6,47.3,39.4,29.8,92,82,70,30.37,30.27,9,2,12,0.00
2013-12-26,52.2,47.8,44.2,46.0,43.2,39.0,91,84,78,30.31,30.21,6,1,7,0.01
2013-12-27,55.0,51.5,48.9,49.3,46.4,43.5,91,83,76,30.36,30.26,7,1,7,0.01
2013-12-28,63.1,56.1,48.0,60.1,52.1,42.1,97,87,75,30.33,29.97,7,2,11,0.00
2013-12-29,75.6,65.4,52.9,68.5,61.9,50.7,98,89,63,30.03,29.85,10,2,13,0.47
2013-12-30,65.8,53.2,42.6,51.6,47.7,41.9,97,83,54,30.21,30.02,5,1,9,0.00
2013-12-31,55.6,52.6,49.8,50.4,49.3,46.9,95,88,80,30.35,30.18,3,0,5,0.00
2014-1-1,55.6,51.9,48.0,54.1,49.9,45.1,97,93,88,30.33,30.10,4,0,4,0.20
2014-1-2,62.2,56.2,45.7,61.3,54.8,35.8,100,95,68,30.11,29.75,12,1,18,1.23